createdAt,value
2023-02-17T00:01:32.435Z,99978.53
2023-02-17T00:04:00.796Z,99967.97
2023-02-17T00:06:32.248Z,99974.91
2023-02-17T00:09:00.301Z,99974.41
2023-02-17T00:11:28.467Z,99979.19
2023-02-17T00:13:56.614Z,99972.56
2023-02-17T00:16:27.031Z,99973.72
2023-02-17T00:18:59.186Z,99978.16
2023-02-17T00:21:30.385Z,99965.97
2023-02-17T00:23:59.616Z,99965.97
2023-02-17T00:26:27.318Z,99967.09
2023-02-17T00:28:54.644Z,99959.31
2023-02-17T00:31:23.485Z,99962.97
2023-02-17T00:33:55.863Z,99961.31
2023-02-17T00:36:24.152Z,99962.31
2023-02-17T00:38:51.718Z,99958.00
2023-02-17T00:41:19.880Z,99952.91
2023-02-17T00:43:48.663Z,99960.50
2023-02-17T00:46:17.848Z,99949.94
2023-02-17T00:48:47.132Z,99958.84
2023-02-17T00:51:15.973Z,99945.81
2023-02-17T00:53:44.389Z,99945.28
2023-02-17T00:56:12.601Z,99943.63
2023-02-17T00:58:41.427Z,99933.91
2023-02-17T01:01:10.618Z,99933.41
2023-02-17T01:03:42.151Z,99934.22
2023-02-17T01:06:18.384Z,99936.84
2023-02-17T01:08:45.868Z,99927.59
2023-02-17T01:11:25.550Z,99925.94
2023-02-17T01:13:55.130Z,99919.88
2023-02-17T01:16:27.725Z,99913.75
2023-02-17T01:18:56.304Z,99911.78
2023-02-17T01:21:29.026Z,99901.22
2023-02-17T01:24:00.299Z,99908.16
2023-02-17T01:26:32.179Z,99902.88
2023-02-17T01:29:03.321Z,99904.50
2023-02-17T01:31:30.459Z,99898.56
2023-02-17T01:34:02.652Z,99887.34
2023-02-17T01:36:30.034Z,99880.41
2023-02-17T01:38:57.595Z,99873.16
2023-02-17T01:41:28.241Z,99869.84
2023-02-17T01:44:21.901Z,99869.84
2023-02-17T01:46:53.102Z,99869.03
2023-02-17T01:49:39.408Z,99876.81
2023-02-17T01:52:26.324Z,99870.19
2023-02-17T01:55:06.445Z,99876.47
2023-02-17T01:57:38.949Z,99887.03
2023-02-17T02:00:09.595Z,99873.16
2023-02-17T02:02:45.831Z,99880.41
2023-02-17T02:05:17.696Z,99863.59
2023-02-17T02:07:48.390Z,99869.53
2023-02-17T02:10:19.930Z,99864.91
2023-02-17T02:12:47.326Z,99862.59
2023-02-17T02:15:20.842Z,99862.59
2023-02-17T02:18:12.140Z,99861.44
2023-02-17T02:21:22.821Z,99872.00
2023-02-17T02:24:00.219Z,99865.94
2023-02-17T02:27:15.373Z,99868.38
2023-02-17T02:30:23.032Z,99867.56
2023-02-17T02:33:12.614Z,99871.19
2023-02-17T02:36:00.381Z,99867.88
2023-02-17T02:38:46.889Z,99871.19
2023-02-17T02:41:22.358Z,99872.84
2023-02-17T02:43:53.179Z,99867.88
2023-02-17T02:46:20.168Z,99867.56
2023-02-17T02:48:48.466Z,99871.19
2023-02-17T02:52:02.298Z,99866.91
2023-02-17T02:54:35.888Z,99871.19
2023-02-17T02:57:27.230Z,99883.72
2023-02-17T03:00:35.371Z,99875.13
2023-02-17T03:03:41.604Z,99866.56
2023-02-17T03:06:41.400Z,99870.19
2023-02-17T03:09:22.339Z,99867.69
2023-02-17T03:11:50.917Z,99860.63
2023-02-17T03:14:21.562Z,99867.69
2023-02-17T03:16:51.539Z,99856.31
2023-02-17T03:19:23.395Z,99861.59
2023-02-17T03:21:57.114Z,99857.31
2023-02-17T03:24:25.380Z,99863.56
2023-02-17T03:26:52.820Z,99852.19
2023-02-17T03:29:20.031Z,99859.44
2023-02-17T03:31:47.456Z,99855.00
2023-02-17T03:34:15.217Z,99856.66
2023-02-17T03:36:42.736Z,99860.28
2023-02-17T03:39:09.762Z,99858.63
2023-02-17T03:41:36.945Z,99856.66
2023-02-17T03:44:04.103Z,99862.75
2023-02-17T03:46:31.367Z,99858.28
2023-02-17T03:48:58.559Z,99858.28
2023-02-17T03:51:26.268Z,99852.03
2023-02-17T03:53:53.261Z,99842.47
2023-02-17T03:56:20.852Z,99850.38
2023-02-17T03:58:48.092Z,99836.03
2023-02-17T04:01:15.414Z,99842.31
2023-02-17T04:03:42.898Z,99839.69
2023-02-17T04:06:11.353Z,99833.56
2023-02-17T04:08:40.074Z,99834.53
2023-02-17T04:11:09.695Z,99831.91
2023-02-17T04:13:37.913Z,99833.56
2023-02-17T04:16:08.770Z,99829.94
2023-02-17T04:18:36.023Z,99831.59
2023-02-17T04:21:04.801Z,99826.63
2023-02-17T04:23:32.246Z,99822.34
2023-02-17T04:25:59.455Z,99832.75
2023-02-17T04:28:27.087Z,99831.91
2023-02-17T04:30:54.397Z,99830.28
2023-02-17T04:33:21.424Z,99826.63
2023-02-17T04:35:48.719Z,99824.00
2023-02-17T04:38:16.226Z,99816.06
2023-02-17T04:40:43.614Z,99815.09
2023-02-17T04:43:10.651Z,99818.72
2023-02-17T04:45:38.871Z,99818.88
2023-02-17T04:48:06.056Z,99814.44
2023-02-17T04:50:33.244Z,99817.75
2023-02-17T04:53:00.264Z,99813.94
2023-02-17T04:55:27.585Z,99817.56
2023-02-17T04:57:54.577Z,99815.75
2023-02-17T05:00:22.080Z,99808.81
2023-02-17T05:02:49.053Z,99810.47
2023-02-17T05:05:18.764Z,99819.38
2023-02-17T05:07:46.818Z,99821.03
2023-02-17T05:10:17.010Z,99822.84
2023-02-17T05:12:44.712Z,99817.41
2023-02-17T05:15:12.922Z,99816.44
2023-02-17T05:17:40.384Z,99811.47
2023-02-17T05:20:09.802Z,99810.81
2023-02-17T05:22:37.502Z,99809.81
2023-02-17T05:25:05.531Z,99810.16
2023-02-17T05:27:33.913Z,99815.59
2023-02-17T05:30:01.429Z,99813.47
2023-02-17T05:32:28.696Z,99815.44
2023-02-17T05:34:55.975Z,99811.78
2023-02-17T05:37:23.038Z,99806.50
2023-02-17T05:39:50.263Z,99802.91
2023-02-17T05:42:17.263Z,99801.88
2023-02-17T05:44:44.473Z,99800.91
2023-02-17T05:47:11.498Z,99795.63
2023-02-17T05:49:38.800Z,99803.38
2023-02-17T05:52:05.802Z,99795.31
2023-02-17T05:54:33.023Z,99791.66
2023-02-17T05:56:59.990Z,99778.47
2023-02-17T05:59:27.556Z,99778.47
2023-02-17T06:01:54.514Z,99785.59
2023-02-17T06:04:21.786Z,99768.91
2023-02-17T06:06:48.805Z,99782.78
2023-02-17T06:09:16.016Z,99775.50
2023-02-17T06:11:42.984Z,99785.75
2023-02-17T06:14:10.505Z,99771.56
2023-02-17T06:16:37.549Z,99762.63
2023-02-17T06:19:05.203Z,99760.66
2023-02-17T06:21:32.584Z,99760.34
2023-02-17T06:23:59.798Z,99764.31
2023-02-17T06:26:26.921Z,99752.41
2023-02-17T06:28:54.289Z,99750.78
2023-02-17T06:31:21.422Z,99758.03
2023-02-17T06:33:48.796Z,99750.78
2023-02-17T06:36:15.687Z,99747.97
2023-02-17T06:38:42.982Z,99752.09
2023-02-17T06:41:10.488Z,99743.34
2023-02-17T06:43:38.683Z,99743.34
2023-02-17T06:46:07.298Z,99744.47
2023-02-17T06:48:35.166Z,99749.13
2023-02-17T06:51:02.330Z,99744.84
2023-02-17T06:53:29.615Z,99745.63
2023-02-17T06:55:56.753Z,99750.78
2023-02-17T06:58:23.895Z,99752.41
2023-02-17T07:00:51.584Z,99755.03
2023-02-17T07:03:18.930Z,99762.63
2023-02-17T07:05:45.931Z,99759.84
2023-02-17T07:08:13.106Z,99757.88
2023-02-17T07:10:40.199Z,99763.16
2023-02-17T07:13:07.385Z,99767.28
2023-02-17T07:15:34.811Z,99772.56
2023-02-17T07:18:03.018Z,99769.91
2023-02-17T07:20:31.943Z,99773.53
2023-02-17T07:23:00.712Z,99776.81
2023-02-17T07:25:27.853Z,99779.47
2023-02-17T07:27:55.060Z,99767.94
2023-02-17T07:30:22.084Z,99758.03
2023-02-17T07:32:49.355Z,99762.16
2023-02-17T07:35:16.967Z,99753.25
2023-02-17T07:37:44.285Z,99748.44
2023-02-17T07:40:12.424Z,99738.72
2023-02-17T07:42:39.854Z,99736.72
2023-02-17T07:45:07.662Z,99732.28
2023-02-17T07:47:35.004Z,99733.25
2023-02-17T07:50:02.077Z,99732.59
2023-02-17T07:52:29.345Z,99738.19
2023-02-17T07:54:56.400Z,99727.13
2023-02-17T07:57:23.585Z,99723.97
2023-02-17T07:59:50.583Z,99716.34
2023-02-17T08:02:17.866Z,99724.41
2023-02-17T08:04:45.392Z,99715.47
2023-02-17T08:07:12.617Z,99725.19
2023-02-17T08:09:58.568Z,99721.53
2023-02-17T08:12:44.402Z,99722.50
2023-02-17T08:15:12.148Z,99712.03
2023-02-17T08:17:39.478Z,99708.88
2023-02-17T08:20:08.972Z,99703.06
2023-02-17T08:22:37.165Z,99707.47
2023-02-17T08:25:06.009Z,99699.50
2023-02-17T08:27:33.449Z,99688.69
2023-02-17T08:30:00.842Z,99681.66
2023-02-17T08:32:28.544Z,99694.34
2023-02-17T08:34:57.136Z,99690.13
2023-02-17T08:37:25.366Z,99699.06
2023-02-17T08:39:52.286Z,99692.81
2023-02-17T08:42:19.836Z,99691.09
2023-02-17T08:44:46.836Z,99687.09
2023-02-17T08:47:14.147Z,99687.53
2023-02-17T08:49:41.104Z,99679.56
2023-02-17T08:52:08.569Z,99681.56
2023-02-17T08:54:36.451Z,99683.84
2023-02-17T08:57:04.291Z,99677.19
2023-02-17T08:59:31.638Z,99670.19
2023-02-17T09:01:58.975Z,99671.72
2023-02-17T09:04:26.093Z,99672.63
2023-02-17T09:06:58.614Z,99675.56
2023-02-17T09:09:26.921Z,99672.81
2023-02-17T09:11:57.433Z,99666.78
2023-02-17T09:14:24.792Z,99676.03
2023-02-17T09:16:54.792Z,99677.91
2023-02-17T09:19:22.275Z,99671.88
2023-02-17T09:21:49.863Z,99673.78
2023-02-17T09:24:19.001Z,99677.75
2023-02-17T09:26:46.314Z,99682.88
2023-02-17T09:29:13.284Z,99675.53
2023-02-17T09:31:40.869Z,99670.69
2023-02-17T09:34:07.883Z,99664.38
2023-02-17T09:36:41.198Z,99660.72
2023-02-17T09:39:11.601Z,99657.03
2023-02-17T09:41:48.246Z,99659.31
2023-02-17T09:44:23.555Z,99648.16
2023-02-17T09:47:11.525Z,99645.59
2023-02-17T09:49:48.119Z,99636.84
2023-02-17T09:52:29.580Z,99630.97
2023-02-17T09:55:28.102Z,99630.69
2023-02-17T09:58:04.532Z,99634.66
2023-02-17T10:01:02.284Z,99641.66
2023-02-17T10:04:02.570Z,99643.84
2023-02-17T10:06:36.015Z,99645.13
2023-02-17T10:09:17.764Z,99643.53
2023-02-17T10:12:01.993Z,99640.75
2023-02-17T10:15:08.691Z,99636.94
2023-02-17T10:18:13.134Z,99634.38
2023-02-17T10:20:49.270Z,99621.31
2023-02-17T10:23:35.095Z,99625.66
2023-02-17T10:26:45.365Z,99624.69
2023-02-17T10:29:33.886Z,99620.25
2023-02-17T10:32:24.330Z,99607.19
2023-02-17T10:35:39.093Z,99600.28
2023-02-17T10:38:50.386Z,99600.75
2023-02-17T10:41:25.092Z,99594.22
2023-02-17T10:43:52.919Z,99599.97
2023-02-17T10:46:29.282Z,99593.84
2023-02-17T10:48:59.469Z,99591.41
2023-02-17T10:51:31.118Z,99582.41
2023-02-17T10:54:25.694Z,99582.63
2023-02-17T10:56:58.230Z,99575.47
2023-02-17T10:59:39.777Z,99567.09
2023-02-17T11:02:39.822Z,99565.44
2023-02-17T11:05:09.010Z,99555.81
2023-02-17T11:07:41.794Z,99568.72
2023-02-17T11:10:32.548Z,99570.97
2023-02-17T11:13:02.523Z,99560.75
2023-02-17T11:15:37.232Z,99559.72
2023-02-17T11:18:18.302Z,99558.28
2023-02-17T11:20:47.190Z,99561.97
2023-02-17T11:23:23.240Z,99564.81
2023-02-17T11:26:07.875Z,99554.16
2023-02-17T11:28:35.227Z,99552.53
2023-02-17T11:31:04.851Z,99543.31
2023-02-17T11:33:40.462Z,99534.31
2023-02-17T11:36:13.510Z,99534.09
2023-02-17T11:38:40.401Z,99527.97
2023-02-17T11:41:08.754Z,99517.31
2023-02-17T11:43:39.020Z,99522.44
2023-02-17T11:46:33.667Z,99518.97
2023-02-17T11:49:36.987Z,99512.00
2023-02-17T11:52:24.178Z,99496.63
2023-02-17T11:55:42.559Z,99490.28
2023-02-17T11:59:00.186Z,99485.81
2023-02-17T12:01:59.507Z,99488.25
2023-02-17T12:04:32.411Z,99480.06
2023-02-17T12:07:22.488Z,99475.16
2023-02-17T12:10:10.614Z,99476.34
2023-02-17T12:12:56.057Z,99478.22
2023-02-17T12:16:03.575Z,99475.78
2023-02-17T12:19:14.183Z,99478.03
2023-02-17T12:21:55.594Z,99467.59
2023-02-17T12:25:15.564Z,99467.75
2023-02-17T12:28:26.909Z,99468.56
2023-02-17T12:31:21.238Z,99456.88
2023-02-17T12:34:15.408Z,99445.16
2023-02-17T12:36:43.908Z,99442.28
2023-02-17T12:39:24.352Z,99448.81
2023-02-17T12:42:01.319Z,99452.50
2023-02-17T12:44:39.064Z,99443.88
2023-02-17T12:47:59.312Z,99436.06
2023-02-17T12:50:37.272Z,99440.13
2023-02-17T12:53:14.073Z,99422.91
2023-02-17T12:55:50.800Z,99427.22
2023-02-17T12:58:28.677Z,99421.47
2023-02-17T13:01:11.464Z,99425.16
2023-02-17T13:03:38.944Z,99410.59
2023-02-17T13:06:37.992Z,99417.97
2023-02-17T13:09:17.502Z,99413.06
2023-02-17T13:11:45.650Z,99408.16
2023-02-17T13:14:25.959Z,99402.00
2023-02-17T13:16:54.317Z,99412.88
2023-02-17T13:19:35.390Z,99399.16
2023-02-17T13:22:04.061Z,99401.22
2023-02-17T13:24:51.030Z,99387.88
2023-02-17T13:27:22.765Z,99388.94
2023-02-17T13:30:26.133Z,99382.56
2023-02-17T13:33:24.576Z,99379.88
2023-02-17T13:35:51.631Z,99384.81
2023-02-17T13:38:31.109Z,99382.75
2023-02-17T13:41:04.328Z,99372.66
2023-02-17T13:43:42.824Z,99370.00
2023-02-17T13:46:19.797Z,99358.31
2023-02-17T13:48:58.999Z,99360.56
2023-02-17T13:51:30.570Z,99361.78
2023-02-17T13:54:09.036Z,99356.00
2023-02-17T13:56:36.170Z,99344.94
2023-02-17T13:59:18.095Z,99343.69
2023-02-17T14:01:46.991Z,99332.97
2023-02-17T14:04:28.108Z,99328.81
2023-02-17T14:06:59.979Z,99319.97
2023-02-17T14:09:35.489Z,99324.25
2023-02-17T14:12:08.138Z,99318.50
2023-02-17T14:14:38.243Z,99317.25
2023-02-17T14:17:27.502Z,99305.31
2023-02-17T14:19:54.790Z,99311.88
2023-02-17T14:22:30.725Z,99307.72
2023-02-17T14:25:06.692Z,99302.59
2023-02-17T14:27:47.740Z,99290.53
2023-02-17T14:30:27.350Z,99298.31
2023-02-17T14:33:17.163Z,99302.81
2023-02-17T14:35:58.061Z,99286.00
2023-02-17T14:38:39.677Z,99282.97
2023-02-17T14:41:11.678Z,99271.69
2023-02-17T14:43:38.706Z,99277.03
2023-02-17T14:46:06.366Z,99272.94
2023-02-17T14:48:33.545Z,99268.88
2023-02-17T14:51:00.995Z,99266.63
2023-02-17T14:53:30.854Z,99271.38
2023-02-17T14:56:27.524Z,99261.94
2023-02-17T14:58:54.565Z,99261.56
2023-02-17T15:01:24.639Z,99260.38
2023-02-17T15:03:53.625Z,99253.81
2023-02-17T15:06:39.318Z,99254.69
2023-02-17T15:09:13.217Z,99251.44
2023-02-17T15:11:45.533Z,99257.63
2023-02-17T15:14:25.289Z,99244.56
2023-02-17T15:16:52.522Z,99250.59
2023-02-17T15:19:19.576Z,99241.41
2023-02-17T15:21:51.438Z,99235.44
2023-02-17T15:24:31.172Z,99235.28
2023-02-17T15:27:03.183Z,99237.34
2023-02-17T15:29:30.669Z,99233.91
2023-02-17T15:32:03.462Z,99231.66
2023-02-17T15:34:34.996Z,99221.88
2023-02-17T15:37:02.433Z,99221.69
2023-02-17T15:39:29.564Z,99213.31
2023-02-17T15:42:05.832Z,99207.63
2023-02-17T15:44:45.167Z,99203.31
2023-02-17T15:47:17.490Z,99199.81
2023-02-17T15:49:45.285Z,99194.31
2023-02-17T15:52:14.453Z,99184.91
2023-02-17T15:54:43.032Z,99169.38
2023-02-17T15:57:24.579Z,99154.06
2023-02-17T15:59:55.150Z,99145.44
2023-02-17T16:02:25.718Z,99149.31
2023-02-17T16:04:52.842Z,99146.66
2023-02-17T16:07:20.069Z,99140.13
2023-02-17T16:09:47.052Z,99134.22
2023-02-17T16:12:26.539Z,99135.66
2023-02-17T16:14:55.239Z,99143.03
2023-02-17T16:17:22.887Z,99140.59
2023-02-17T16:19:49.840Z,99136.50
2023-02-17T16:22:17.298Z,99128.94
2023-02-17T16:24:44.319Z,99128.34
2023-02-17T16:27:16.726Z,99126.69
2023-02-17T16:29:43.881Z,99130.41
2023-02-17T16:32:13.146Z,99116.50
2023-02-17T16:34:42.699Z,99114.88
2023-02-17T16:37:17.003Z,99116.94
2023-02-17T16:39:45.754Z,99115.28
2023-02-17T16:42:14.764Z,99119.00
2023-02-17T16:44:42.372Z,99126.75
2023-02-17T16:47:20.813Z,99116.94
2023-02-17T16:49:48.499Z,99113.84
2023-02-17T16:52:34.000Z,99121.06
2023-02-17T16:55:01.334Z,99120.41
2023-02-17T16:57:28.717Z,99117.16
2023-02-17T16:59:55.893Z,99106.53
2023-02-17T17:02:23.194Z,99104.47
2023-02-17T17:04:50.511Z,99099.34
2023-02-17T17:07:18.032Z,99103.25
2023-02-17T17:09:48.686Z,99098.97
2023-02-17T17:12:23.499Z,99079.31
2023-02-17T17:14:50.711Z,99075.19
2023-02-17T17:17:18.075Z,99072.34
2023-02-17T17:19:44.960Z,99072.72
2023-02-17T17:22:12.511Z,99070.28
2023-02-17T17:24:39.729Z,99068.63
2023-02-17T17:27:07.116Z,99065.31
2023-02-17T17:29:34.156Z,99064.31
2023-02-17T17:32:02.367Z,99061.66
2023-02-17T17:34:29.364Z,99064.31
2023-02-17T17:36:57.347Z,99047.31
2023-02-17T17:39:25.175Z,99052.63
2023-02-17T17:41:52.541Z,99046.50
2023-02-17T17:44:20.573Z,99048.94
2023-02-17T17:46:47.871Z,99048.75
2023-02-17T17:49:17.831Z,99036.22
2023-02-17T17:51:45.353Z,99024.34
2023-02-17T17:54:12.403Z,99023.09
2023-02-17T17:56:43.133Z,99018.81
2023-02-17T17:59:12.611Z,99017.75
2023-02-17T18:01:40.351Z,99016.31
2023-02-17T18:04:09.264Z,99021.00
2023-02-17T18:06:46.786Z,99019.75
2023-02-17T18:09:31.767Z,99018.69
2023-02-17T18:12:07.371Z,99024.66
2023-02-17T18:14:38.171Z,99036.91
2023-02-17T18:17:07.789Z,99034.84
2023-02-17T18:19:35.210Z,99035.88
2023-02-17T18:22:02.755Z,99036.50
2023-02-17T18:24:30.347Z,99041.41
2023-02-17T18:26:57.658Z,99035.03
2023-02-17T18:29:24.654Z,99034.19
2023-02-17T18:31:52.499Z,99026.56
2023-02-17T18:34:19.476Z,99026.34
2023-02-17T18:36:46.730Z,99020.16
2023-02-17T18:39:13.673Z,99020.78
2023-02-17T18:41:40.908Z,99028.09
2023-02-17T18:44:09.753Z,99027.44
2023-02-17T18:46:39.838Z,99018.41
2023-02-17T18:49:07.226Z,99021.88
2023-02-17T18:51:34.677Z,99012.03
2023-02-17T18:54:02.769Z,99017.38
2023-02-17T18:56:33.163Z,98993.41
2023-02-17T18:59:00.601Z,98997.72
2023-02-17T19:01:33.092Z,99001.38
2023-02-17T19:04:00.872Z,99003.03
2023-02-17T19:06:33.639Z,99009.38
2023-02-17T19:09:04.272Z,99010.56
2023-02-17T19:11:33.216Z,99020.03
2023-02-17T19:14:02.330Z,99008.38
2023-02-17T19:16:32.041Z,99018.19
2023-02-17T19:19:00.561Z,99025.13
2023-02-17T19:21:28.286Z,99017.75
2023-02-17T19:23:56.119Z,99020.19
2023-02-17T19:26:23.488Z,99028.56
2023-02-17T19:28:50.521Z,99025.44
2023-02-17T19:31:20.377Z,99015.19
2023-02-17T19:33:48.123Z,99012.09
2023-02-17T19:36:21.739Z,99013.84
2023-02-17T19:38:50.260Z,99023.06
2023-02-17T19:41:18.957Z,99019.50
2023-02-17T19:43:46.196Z,99014.53
2023-02-17T19:46:18.040Z,99014.47
2023-02-17T19:48:45.544Z,99019.34
2023-02-17T19:51:13.916Z,99028.09
2023-02-17T19:53:43.060Z,99014.91
2023-02-17T19:56:32.345Z,99027.34
2023-02-17T19:58:59.969Z,99022.72
2023-02-17T20:01:31.135Z,99023.34
2023-02-17T20:04:04.376Z,99020.69
2023-02-17T20:06:41.486Z,99016.59
2023-02-17T20:09:15.658Z,99023.19
2023-02-17T20:11:45.025Z,99036.31
2023-02-17T20:14:12.720Z,99028.97
2023-02-17T20:16:41.066Z,99042.16
2023-02-17T20:19:08.283Z,99042.16
2023-02-17T20:21:38.506Z,99031.50
2023-02-17T20:24:06.369Z,99047.50
2023-02-17T20:26:41.335Z,99042.16
2023-02-17T20:29:09.807Z,99026.16
2023-02-17T20:31:39.853Z,99038.47
2023-02-17T20:34:20.628Z,99018.41
2023-02-17T20:36:47.903Z,99029.84
2023-02-17T20:39:14.862Z,99013.84
2023-02-17T20:41:42.237Z,99020.25
2023-02-17T20:44:12.317Z,99031.06
2023-02-17T20:46:42.767Z,99025.13
2023-02-17T20:49:10.522Z,99034.97
2023-02-17T20:51:37.850Z,99034.16
2023-02-17T20:54:05.256Z,99024.06
2023-02-17T20:56:38.714Z,99017.47
2023-02-17T20:59:08.948Z,99029.41
2023-02-17T21:01:36.762Z,99023.63
2023-02-17T21:04:03.706Z,99023.63
2023-02-17T21:06:42.900Z,99010.53
2023-02-17T21:09:18.552Z,98991.41
